หน้าหลัก
METAR-TAF:

METAR-TAF

ท่าอากาศยาน :

Mitiga International Airport

ตริโปลี, ลิเบีย

ละติจูด: 32-54N, ลองจิจูด: 13-17E, ความสูง: 11 ม.

METAR: หายไป

เวลา: 22:01 (20:01 UTC)

การพยากรณ์

รายงานได้ทำขึ้นเมื่อ 3 ชั่วโมงและ 1 นาทีที่แล้ว ณ เวลา 17:00 UTC
การพยากรณ์มีผลตั้งแต่วันที่ 01 ณ เวลา 18 UTC จนถึงวันที่ 02 ณ เวลา 18 UTC
ลม 15 นอตจากตะวันออก/ตะวันออกเฉียงเหนือ
ทัศนวิสัย: 8000 ม.
มีเมฆน้อยที่ความสูง 2500 ฟุต
มีเมฆกระจายเป็นบางส่วนที่ความสูง 8000 ฟุต
ความน่าจะเป็น 04% :
ชั่วคราว
ตั้งแต่วันที่ 01 ณ เวลา 21 UTC จนถึงวันที่ 02 ณ เวลา 03 UTC
ทัศนวิสัย: 5000 ม.
มีเมฆเป็นส่วนมากเว้นเป็นระยะที่ความสูง 2500 ฟุต
มีเมฆเป็นส่วนมากเว้นเป็นระยะที่ความสูง 7000 ฟุต
ฝน

TAF: HLLM 011700Z 0118/0218 06015KT 8000 FEW025 SCT080 PROB040 TEMPO 0121/0203 5000 RA BKN025 BKN070

สังเกตการณ์สภาพอากาศและพยากรณ์อากาศของสนามบินมากกว่า 4000 แห่ง (รายงาน METAR และ TAF).

สถานีที่ดูได้จะแสดงไว้ด้วยจุดสีเหลืองและสีแดงบนแผนที่.

เลื่อนเมาส์ไปเหนือจุดเพื่อดูชื่อสถานี.

แล้วคลิกเพื่อดูสังเกตการณ์และการพยากรณ์สภาพอากาศ.

ในการเปลี่ยนแผนที่: คลิกที่ปุ่มสีเขียวที่มีกากบาทสีดำเพื่อซูมเข้า; ที่ปุ่มสีเขียวที่มีขีดเพื่อซูมออก; หรือที่ลูกศรสีเขียวเพื่อไปยังแผนที่ที่อยู่ติดกัน.


METAR-TAF: